Time;durP1;ratioP1;P1;durP2;ratioP2;P2;SDS_P1;SDS_P2;PMS_P1;PMS_P2;Temp;Humidity;BMP_temperature;BMP_pressure;BME280_temperature;BME280_humidity;BME280_pressure;Samples;Min_cycle;Max_cycle;Signal;HPM_P1;HPM_P2
2023/01/12 00:02:21;;;;;;;10.73;3.20;;;6.20;99.90;;;-141.84;79.87;18913.59;5052677;28;20229;-60
2023/01/12 00:04:51;;;;;;;7.30;2.63;;;;;;;-141.84;79.24;18968.47;5052099;28;20228;-60
2023/01/12 00:07:20;;;;;;;9.37;2.50;;;;;;;-141.84;79.59;18897.34;5052388;28;20201;-60
2023/01/12 00:09:48;;;;;;;4.20;2.87;;;;;;;-141.84;80.32;18940.03;5052780;28;20205;-62
2023/01/12 00:12:17;;;;;;;5.67;2.93;;;;;;;-141.84;79.49;18931.91;5052216;28;20228;-61
2023/01/12 00:14:45;;;;;;;4.60;2.50;;;;;;;-141.84;79.65;18950.19;5052152;28;20249;-60
2023/01/12 00:17:16;;;;;;;4.37;2.67;;;;;;;-141.84;80.62;18903.44;5051966;28;20240;-60
2023/01/12 00:19:44;;;;;;;4.73;2.30;;;;;;;-141.84;80.68;18905.47;5051949;28;20221;-61
2023/01/12 00:22:17;;;;;;;7.00;2.47;;;;;;;-141.84;80.60;18899.38;5048947;28;20206;-59
2023/01/12 00:24:48;;;;;;;7.10;2.47;;;;;;;-141.84;80.42;18911.56;5032372;28;20189;-60
2023/01/12 00:27:19;;;;;;;4.43;2.43;;;;;;;-141.84;80.39;18956.28;5045916;28;20271;-59
2023/01/12 00:29:47;;;;;;;6.10;2.20;;;;;;;-141.84;80.09;18968.47;5051781;28;20232;-61
2023/01/12 00:32:18;;;;;;;6.47;2.40;;;6.20;99.90;;;-141.84;79.31;18946.13;5051934;28;20227;-62
2023/01/12 00:34:47;;;;;;;5.00;2.10;;;6.30;99.90;;;-141.84;77.46;19003.00;5052115;28;20225;-60
2023/01/12 00:37:16;;;;;;;6.87;2.30;;;6.40;99.90;;;-141.84;76.14;19029.44;5051814;28;20244;-60
2023/01/12 00:39:44;;;;;;;8.40;2.20;;;6.60;99.90;;;-141.84;76.02;18996.91;5052461;28;20216;-61
2023/01/12 00:45:24;;;;;;;2.83;1.90;;;6.70;99.90;;;-141.84;75.65;19037.56;5051576;28;20229;-60
2023/01/12 00:47:53;;;;;;;5.53;2.17;;;6.80;99.90;;;-141.84;75.87;19037.56;5051516;28;20225;-60
2023/01/12 00:50:22;;;;;;;5.33;2.07;;;6.80;99.90;;;-141.84;75.93;19017.25;5051364;28;20233;-61
2023/01/12 00:52:52;;;;;;;7.57;2.57;;;6.80;99.90;;;-141.84;74.99;19041.63;5051429;28;20235;-60
2023/01/12 00:55:20;;;;;;;7.80;2.10;;;6.80;99.90;;;-141.84;75.12;19037.56;5050877;28;20244;-59
2023/01/12 00:57:48;;;;;;;5.77;2.10;;;6.90;99.90;;;-141.84;75.38;19039.59;5051345;28;20593;-59
2023/01/12 01:00:18;;;;;;;4.87;2.07;;;;;;;-141.84;75.54;19039.59;5050835;28;20228;-60
2023/01/12 01:02:47;;;;;;;7.27;2.27;;;;;;;-141.84;75.79;19025.38;5050893;28;20225;-61
2023/01/12 01:05:16;;;;;;;4.17;1.97;;;;;;;-141.84;75.91;19039.59;5031480;28;20237;-60
2023/01/12 01:07:46;;;;;;;5.53;1.90;;;;;;;-141.84;75.31;19053.81;5035482;28;20300;-60
2023/01/12 01:10:16;;;;;;;5.57;1.80;;;6.80;99.90;;;-141.84;75.00;19070.06;5051286;28;20201;-59
2023/01/12 01:12:44;;;;;;;4.30;1.70;;;6.80;99.90;;;-141.84;74.13;19053.81;5051760;28;20789;-58
2023/01/12 01:15:13;;;;;;;6.10;2.20;;;;;;;-141.84;74.35;19084.28;5042809;28;20233;-60
2023/01/12 01:17:41;;;;;;;6.63;2.00;;;6.90;99.90;;;-141.84;75.12;19078.19;5031097;28;20657;-61
2023/01/12 01:20:12;;;;;;;2.80;1.60;;;6.90;99.90;;;-141.84;74.29;19094.44;5033101;28;20228;-61
2023/01/12 01:22:40;;;;;;;5.87;1.93;;;6.80;99.90;;;-141.84;75.77;19017.25;5037705;28;20701;-61
2023/01/12 01:25:09;;;;;;;3.60;1.57;;;6.70;99.90;;;-141.84;76.33;19031.47;5051243;28;20213;-61
2023/01/12 01:27:39;;;;;;;5.90;1.70;;;6.60;99.90;;;-141.84;75.93;19025.38;5051369;28;20220;-60
2023/01/12 01:30:08;;;;;;;4.57;1.77;;;;;;;-141.84;76.57;19025.38;5050810;28;20232;-59
2023/01/12 01:32:37;;;;;;;4.33;1.40;;;;;;;-141.84;76.58;19045.69;5051063;28;20593;-61
2023/01/12 01:35:06;;;;;;;7.97;2.07;;;;;;;-141.84;75.79;19053.81;5050958;28;20242;-61
2023/01/12 01:37:34;;;;;;;4.37;1.50;;;6.60;99.90;;;-141.84;76.21;19027.41;5050851;28;20786;-60
2023/01/12 01:40:02;;;;;;;1.97;1.50;;;6.40;99.90;;;-141.84;74.96;19070.06;5051259;28;20205;-60
2023/01/12 01:42:30;;;;;;;4.73;1.67;;;6.50;99.90;;;-141.84;74.75;19055.84;5050917;28;20236;-60
2023/01/12 01:45:02;;;;;;;5.27;1.80;;;6.50;99.90;;;-141.84;75.38;19029.44;5050681;28;20732;-59
2023/01/12 01:47:40;;;;;;;4.33;1.70;;;6.50;99.90;;;-141.84;75.24;19021.31;5050553;28;20232;-65
2023/01/12 01:50:18;;;;;;;5.00;1.83;;;6.50;99.90;;;-141.84;75.07;19023.34;5050529;28;20228;-65
2023/01/12 01:52:52;;;;;;;4.30;1.50;;;6.50;99.90;;;-141.84;75.29;19057.88;5050400;28;20554;-65
2023/01/12 01:55:26;;;;;;;6.57;1.97;;;6.60;99.90;;;-141.84;75.01;19051.78;5050220;28;20225;-66
2023/01/12 01:58:00;;;;;;;4.27;1.37;;;6.60;99.90;;;-141.84;74.88;19049.75;5050743;28;20661;-64
2023/01/12 02:00:30;;;;;;;3.13;1.30;;;;;;;-141.84;75.13;19063.97;5050930;28;20223;-65
2023/01/12 02:03:01;;;;;;;5.97;1.50;;;;;;;-141.84;75.04;19066.00;5050139;28;20225;-65
2023/01/12 02:05:30;;;;;;;3.23;1.47;;;;;;;-141.84;74.68;19076.16;5050563;28;20316;-64
2023/01/12 02:08:08;;;;;;;4.40;1.47;;;6.60;99.90;;;-141.84;73.76;19082.25;5050368;28;20267;-65
2023/01/12 02:10:38;;;;;;;3.57;1.50;;;;;;;-141.84;74.57;19055.84;5050466;28;20229;-64
2023/01/12 02:16:20;;;;;;;5.47;1.50;;;6.70;99.90;;;-141.84;73.50;19106.66;5038082;28;20194;-66
2023/01/12 02:19:13;;;;;;;7.20;1.50;;;6.80;99.90;;;-141.84;73.17;19126.97;5036456;28;20287;-65
2023/01/12 02:22:27;;;;;;;5.40;1.40;;;6.80;99.90;;;-141.84;72.60;19120.88;5054619;28;20201;-67
2023/01/12 02:25:30;;;;;;;5.07;1.57;;;6.90;99.90;;;-141.84;72.69;19126.97;5051751;28;20225;-66
2023/01/12 02:28:52;;;;;;;5.13;1.47;;;7.00;99.90;;;-141.84;71.66;19147.28;5054342;28;20242;-65
2023/01/12 02:31:47;;;;;;;9.47;1.67;;;7.00;99.90;;;-141.84;71.60;19122.91;5054103;28;20192;-65
2023/01/12 02:34:30;;;;;;;2.87;1.40;;;7.10;99.90;;;-141.84;70.59;19204.19;5043977;28;20208;-65
2023/01/12 02:37:16;;;;;;;6.93;1.47;;;7.20;99.90;;;-141.84;70.83;19165.56;5054580;28;20220;-65
2023/01/12 02:39:57;;;;;;;3.53;1.27;;;7.20;99.90;;;-141.84;71.10;19145.25;5054409;28;20216;-65
2023/01/12 02:42:41;;;;;;;3.67;1.80;;;7.20;99.90;;;-141.84;71.71;19155.41;5053650;28;20239;-64
2023/01/12 02:45:30;;;;;;;7.17;1.73;;;7.30;99.90;;;-141.84;71.16;19155.41;5054033;28;20701;-65
2023/01/12 02:48:08;;;;;;;4.87;1.40;;;7.30;99.90;;;-141.84;71.73;19155.41;5053408;28;20232;-64
2023/01/12 02:50:48;;;;;;;4.07;1.50;;;7.30;99.90;;;-141.84;71.03;19171.66;5053877;28;20224;-64
2023/01/12 02:53:23;;;;;;;10.23;1.53;;;7.30;99.90;;;-141.84;71.29;19177.75;5053408;28;20232;-65
2023/01/12 02:55:53;;;;;;;3.80;1.50;;;7.30;99.90;;;-141.84;70.86;19157.44;5053309;28;20220;-66
2023/01/12 02:58:25;;;;;;;4.87;1.63;;;7.30;99.90;;;-141.84;70.37;19187.91;5053188;28;20221;-64
2023/01/12 03:00:57;;;;;;;4.23;1.47;;;7.40;99.90;;;-141.84;70.23;19163.53;5053880;28;20656;-65
2023/01/12 03:03:27;;;;;;;6.50;2.20;;;7.50;99.90;;;-141.84;70.43;19210.28;5053205;28;20739;-65
2023/01/12 03:05:58;;;;;;;4.23;1.50;;;7.60;99.90;;;-141.84;71.55;19165.56;5053488;28;20230;-65
2023/01/12 03:08:31;;;;;;;4.97;1.63;;;7.50;99.90;;;-141.84;71.57;19173.69;5053518;28;20645;-65
2023/01/12 03:11:11;;;;;;;5.37;1.83;;;7.50;99.90;;;-141.84;71.01;19187.91;5049776;28;20240;-65
2023/01/12 03:13:48;;;;;;;3.10;1.47;;;7.50;99.90;;;-141.84;70.56;19192.00;5033501;28;20280;-66
2023/01/12 03:16:22;;;;;;;4.03;1.63;;;7.50;99.90;;;-141.84;70.61;19173.69;5049554;28;20205;-65
2023/01/12 03:18:58;;;;;;;6.50;2.00;;;7.50;99.90;;;-141.84;69.95;19194.03;5054202;28;20209;-65
2023/01/12 03:21:32;;;;;;;5.43;1.90;;;7.60;99.90;;;-141.84;69.68;19240.75;5053719;28;20224;-64
2023/01/12 03:24:06;;;;;;;3.87;1.43;;;7.60;99.90;;;-141.84;69.87;19208.25;5053400;28;20598;-64
2023/01/12 03:26:41;;;;;;;4.13;1.67;;;7.70;99.90;;;-141.84;70.46;19206.22;5053800;28;20229;-64
2023/01/12 03:29:17;;;;;;;4.77;1.67;;;7.60;99.90;;;-141.84;69.98;19230.59;5053322;28;20228;-65
2023/01/12 03:31:45;;;;;;;3.50;1.63;;;7.70;99.90;;;-141.84;69.87;19198.09;5053143;28;20221;-65
2023/01/12 03:34:15;;;;;;;4.23;1.33;;;7.70;99.90;;;-141.84;69.75;19234.66;5053532;28;20329;-64
2023/01/12 03:36:54;;;;;;;4.37;1.70;;;7.70;99.90;;;-141.84;69.95;19236.69;5053958;28;20197;-64
2023/01/12 03:39:34;;;;;;;5.33;1.67;;;7.70;99.90;;;-141.84;69.41;19238.72;5040078;28;20611;-66
2023/01/12 03:42:09;;;;;;;5.20;1.63;;;;;;;-141.84;69.44;19236.69;5053271;28;20596;-65
2023/01/12 03:44:42;;;;;;;4.90;1.60;;;;;;;-141.84;68.77;19244.81;5052894;28;20221;-64
2023/01/12 03:47:17;;;;;;;5.37;1.43;;;;;;;-141.84;68.59;19242.78;5053268;28;20232;-65
2023/01/12 03:49:53;;;;;;;6.00;1.60;;;7.80;99.90;;;-141.84;68.69;19244.81;5052744;28;20623;-65
2023/01/12 03:52:25;;;;;;;3.40;1.57;;;7.90;99.90;;;-141.84;68.64;19269.22;5053050;28;20571;-65
2023/01/12 03:54:58;;;;;;;4.57;1.30;;;8.00;99.90;;;-141.84;68.41;19265.13;5053262;28;20731;-65
2023/01/12 03:57:28;;;;;;;4.13;1.43;;;8.00;99.90;;;-141.84;68.00;19275.31;5052762;28;20241;-65
2023/01/12 03:59:59;;;;;;;4.20;1.60;;;8.00;99.90;;;-141.84;68.68;19273.28;5052773;28;20221;-65
2023/01/12 04:02:27;;;;;;;5.10;2.33;;;8.00;99.90;;;-141.84;68.58;19236.69;5053138;28;20225;-64
2023/01/12 04:04:57;;;;;;;5.63;1.97;;;8.00;99.90;;;-141.84;68.85;19236.69;5052602;28;20891;-64
2023/01/12 04:07:25;;;;;;;5.53;1.90;;;8.00;99.90;;;-141.84;69.03;19216.38;5049107;28;20280;-66
2023/01/12 04:09:54;;;;;;;4.93;1.40;;;8.00;99.90;;;-141.84;69.55;19220.44;5053267;28;20217;-64
2023/01/12 04:12:22;;;;;;;7.07;1.70;;;8.00;99.90;;;-141.84;69.20;19261.06;5052402;28;20234;-64
2023/01/12 04:14:50;;;;;;;7.53;1.60;;;8.00;99.90;;;-141.84;69.27;19230.59;5052359;28;20229;-64
2023/01/12 04:17:23;;;;;;;5.17;1.57;;;7.90;99.90;;;-141.84;68.50;19261.06;5052647;28;20224;-64
2023/01/12 04:19:51;;;;;;;7.63;1.87;;;8.00;99.90;;;-141.84;68.74;19297.66;5051843;28;20235;-65
2023/01/12 04:25:07;;;;;;;3.50;1.60;;;8.00;99.90;;;-141.84;69.48;19293.59;5052433;28;20269;-65
2023/01/12 04:27:40;;;;;;;5.47;1.80;;;8.00;99.90;;;-141.84;69.13;19248.88;5052738;28;20221;-64
2023/01/12 04:30:10;;;;;;;4.30;1.80;;;8.00;99.90;;;-141.84;69.50;19246.84;5052068;28;20225;-65
2023/01/12 04:32:38;;;;;;;6.70;1.90;;;8.00;99.90;;;-141.84;68.85;19273.28;5052235;28;20229;-65
2023/01/12 04:35:07;;;;;;;5.07;1.80;;;8.00;99.90;;;-141.84;70.13;19263.09;5052054;28;20739;-65
2023/01/12 04:37:37;;;;;;;5.40;2.03;;;8.00;99.90;;;-141.84;69.71;19244.81;5052174;28;20228;-64
2023/01/12 04:40:08;;;;;;;6.23;1.77;;;8.00;99.90;;;-141.84;69.38;19240.75;5052245;28;20197;-64
2023/01/12 04:45:40;;;;;;;6.03;1.60;;;8.00;99.90;;;-141.84;69.85;19236.69;4970506;28;20224;-65
2023/01/12 04:48:11;;;;;;;4.07;1.70;;;8.00;99.90;;;-141.84;69.25;19275.31;4970949;28;20306;-64
2023/01/12 04:50:41;;;;;;;5.93;1.80;;;;;;;-141.84;69.56;19236.69;5001151;28;20693;-65
2023/01/12 04:53:12;;;;;;;8.07;2.00;;;8.00;99.90;;;-141.84;69.69;19250.91;5032050;28;20233;-65
2023/01/12 04:55:43;;;;;;;3.40;1.60;;;;;;;-141.84;69.27;19265.13;5031732;28;20704;-66
2023/01/12 04:58:11;;;;;;;5.30;1.73;;;8.00;99.90;;;-141.84;69.39;19281.41;5031989;28;20262;-66
2023/01/12 05:00:39;;;;;;;5.07;1.80;;;;;;;-141.84;69.67;19283.44;5045650;28;20669;-65
2023/01/12 05:03:10;;;;;;;7.23;1.83;;;;;;;-141.84;70.00;19301.72;5050754;28;20226;-64
2023/01/12 05:05:38;;;;;;;4.87;1.60;;;;;;;-141.84;70.54;19265.13;5031813;28;20230;-66
2023/01/12 05:10:57;;;;;;;6.07;1.90;;;;;;;-141.84;69.92;19240.75;5051526;28;20221;-64
2023/01/12 05:13:28;;;;;;;6.53;1.77;;;;;;;-141.84;70.33;19250.91;5051533;28;20691;-65
2023/01/12 05:15:56;;;;;;;7.67;2.40;;;8.10;99.90;;;-141.84;69.73;19295.63;5052335;28;20182;-64
2023/01/12 05:18:26;;;;;;;5.10;1.43;;;;;;;-141.84;69.85;19277.34;5051687;28;20221;-64
2023/01/12 05:20:57;;;;;;;4.33;1.43;;;;;;;-141.84;70.55;19283.44;5051395;28;20225;-64
2023/01/12 05:23:26;;;;;;;4.67;1.70;;;8.10;99.90;;;-141.84;70.34;19242.78;5051359;28;20237;-65
2023/01/12 05:25:59;;;;;;;5.73;2.00;;;8.10;99.90;;;-141.84;69.80;19273.28;5051260;28;20264;-64
2023/01/12 05:28:27;;;;;;;5.73;1.80;;;8.20;99.90;;;-141.84;69.67;19273.28;5049554;28;20224;-65
2023/01/12 05:31:01;;;;;;;4.43;1.47;;;;;;;-141.84;69.69;19299.69;5031879;28;20206;-65
2023/01/12 05:33:29;;;;;;;6.13;1.80;;;;;;;-141.84;70.32;19275.31;5031664;28;20212;-66
2023/01/12 05:35:57;;;;;;;5.80;2.47;;;8.20;99.90;;;-141.84;69.52;19283.44;5030873;28;20240;-66
2023/01/12 05:38:26;;;;;;;4.17;1.20;;;8.30;99.90;;;-141.84;69.34;19273.28;5040810;28;20224;-66
2023/01/12 05:40:58;;;;;;;6.83;1.50;;;8.30;99.90;;;-141.84;69.17;19285.47;5050772;28;20217;-64
2023/01/12 05:46:14;;;;;;;3.63;1.20;;;8.40;99.90;;;-141.84;69.36;19334.22;5050801;28;20664;-66
2023/01/12 05:48:43;;;;;;;4.43;1.53;;;8.30;99.90;;;-141.84;68.86;19289.53;5051735;28;20259;-64
2023/01/12 05:51:12;;;;;;;4.77;1.50;;;8.40;99.90;;;-141.84;69.02;19275.31;5050995;28;20225;-65
2023/01/12 05:53:41;;;;;;;4.00;1.43;;;8.40;99.90;;;-141.84;68.92;19326.09;5050749;28;20232;-65
2023/01/12 05:56:16;;;;;;;2.23;1.30;;;;;;;-141.84;68.83;19305.78;5050836;28;20622;-65
2023/01/12 05:58:48;;;;;;;3.27;1.20;;;8.40;99.90;;;-141.84;68.44;19303.75;5050950;28;20228;-66
2023/01/12 06:01:17;;;;;;;2.63;1.20;;;8.40;99.90;;;-141.84;68.32;19305.78;5034020;28;20202;-65
2023/01/12 06:03:49;;;;;;;3.33;1.47;;;8.50;99.90;;;-141.84;68.66;19315.94;5039616;28;20201;-65
2023/01/12 06:06:18;;;;;;;2.93;1.40;;;8.40;99.90;;;-141.84;68.93;19326.09;5050753;28;20225;-65
2023/01/12 06:08:47;;;;;;;2.43;1.37;;;8.40;99.90;;;-141.84;68.33;19324.06;5050541;28;20228;-66
2023/01/12 06:14:11;;;;;;;4.80;1.43;;;8.60;99.90;;;-141.84;68.58;19348.47;5011941;28;20219;-65
2023/01/12 06:16:43;;;;;;;2.77;1.30;;;8.50;99.90;;;-141.84;68.63;19328.13;5050970;28;20217;-64
2023/01/12 06:19:12;;;;;;;6.70;1.40;;;8.50;99.90;;;-141.84;69.29;19311.88;5051080;28;20228;-64
2023/01/12 06:21:41;;;;;;;4.30;1.20;;;8.50;99.90;;;-141.84;69.16;19297.66;5051425;28;20248;-64
2023/01/12 06:24:09;;;;;;;4.17;1.37;;;8.40;99.90;;;-141.84;68.96;19344.41;5050433;28;20240;-67
2023/01/12 06:26:41;;;;;;;3.47;1.50;;;8.50;99.90;;;-141.84;69.01;19358.63;5050375;28;20236;-66
2023/01/12 06:29:09;;;;;;;3.97;1.30;;;8.50;99.90;;;-141.84;69.36;19328.13;5050746;28;20235;-65
2023/01/12 06:31:37;;;;;;;3.37;1.30;;;8.50;99.90;;;-141.84;68.79;19338.28;5050700;28;20229;-65
2023/01/12 06:34:06;;;;;;;5.87;1.73;;;8.50;99.90;;;-141.84;69.02;19305.78;5051385;28;20211;-65
2023/01/12 06:36:35;;;;;;;2.67;1.30;;;8.40;99.90;;;-141.84;69.01;19305.78;5050953;28;20197;-64
2023/01/12 06:39:04;;;;;;;4.53;1.70;;;8.40;99.90;;;-141.84;69.46;19275.31;5050482;28;20237;-65
2023/01/12 06:44:21;;;;;;;5.10;1.40;;;8.40;99.90;;;-141.84;69.49;19291.56;5050255;28;20735;-65
2023/01/12 06:46:49;;;;;;;5.03;1.50;;;8.40;99.90;;;-141.84;69.23;19338.28;5050309;28;20225;-65
2023/01/12 06:49:18;;;;;;;4.17;2.00;;;8.40;99.90;;;-141.84;69.34;19320.00;5050525;28;20556;-64
2023/01/12 06:51:50;;;;;;;3.10;1.43;;;8.40;99.90;;;-141.84;69.62;19305.78;5050959;28;20213;-66
2023/01/12 06:54:18;;;;;;;5.33;1.40;;;8.40;99.90;;;-141.84;69.80;19287.50;5050322;28;20579;-64
2023/01/12 06:56:46;;;;;;;4.27;1.40;;;8.40;99.90;;;-141.84;69.91;19317.97;5040321;28;20230;-65
2023/01/12 06:59:14;;;;;;;3.13;1.50;;;8.40;99.90;;;-141.84;69.38;19311.88;5032366;28;20226;-65
2023/01/12 07:01:44;;;;;;;3.80;1.40;;;8.40;99.90;;;-141.84;69.43;19295.63;5050484;28;20570;-64
2023/01/12 07:04:12;;;;;;;4.60;1.53;;;8.40;99.90;;;-141.84;69.76;19311.88;5050539;28;20220;-65
2023/01/12 07:06:40;;;;;;;3.33;1.67;;;8.40;99.90;;;-141.84;69.29;19320.00;5053494;28;20217;-65
2023/01/12 07:09:09;;;;;;;5.77;1.70;;;8.40;99.90;;;-141.84;69.38;19328.13;5053808;28;20225;-64
2023/01/12 07:11:37;;;;;;;4.67;1.30;;;8.50;99.90;;;-141.84;69.54;19293.59;5053783;28;20225;-65
2023/01/12 07:14:05;;;;;;;3.60;1.67;;;8.50;99.90;;;-141.84;69.34;19303.75;5053671;28;20229;-65
2023/01/12 07:16:36;;;;;;;4.73;1.47;;;8.50;99.90;;;-141.84;69.48;19350.50;5053741;28;20228;-65
2023/01/12 07:19:05;;;;;;;5.57;1.57;;;8.50;99.90;;;-141.84;69.41;19338.28;5053709;28;20213;-62
2023/01/12 07:21:33;;;;;;;5.23;1.73;;;8.50;99.90;;;-141.84;69.63;19346.44;5054417;28;20216;-62
2023/01/12 07:24:02;;;;;;;4.00;1.30;;;8.50;99.90;;;-141.84;69.86;19293.59;5053440;28;20225;-63
2023/01/12 07:26:30;;;;;;;4.03;1.80;;;8.50;99.90;;;-141.84;69.95;19299.69;5053413;28;20240;-63
2023/01/12 07:28:58;;;;;;;4.33;1.67;;;8.50;99.90;;;-141.84;69.60;19293.59;5053325;28;20225;-63
2023/01/12 07:31:26;;;;;;;5.10;1.87;;;8.50;99.90;;;-141.84;69.72;19342.34;5053461;28;20663;-63
2023/01/12 07:33:55;;;;;;;5.07;1.80;;;8.50;99.90;;;-141.84;69.87;19285.47;5053658;28;20267;-63
2023/01/12 07:36:25;;;;;;;5.47;2.30;;;8.50;99.90;;;-141.84;69.69;19315.94;5053258;28;20233;-63
2023/01/12 07:38:53;;;;;;;5.40;1.70;;;8.50;99.90;;;-141.84;70.13;19330.16;5053062;28;20584;-63
2023/01/12 07:44:19;;;;;;;5.97;1.80;;;8.50;99.90;;;-141.84;69.71;19356.59;5010548;28;20226;-63
2023/01/12 07:46:47;;;;;;;3.90;1.70;;;8.50;99.90;;;-141.84;69.03;19342.34;5042749;28;20221;-63
2023/01/12 07:49:15;;;;;;;6.57;2.10;;;8.60;99.90;;;-141.84;69.54;19328.13;5053218;28;20295;-63
2023/01/12 07:51:45;;;;;;;5.03;1.80;;;8.70;99.90;;;-141.84;69.04;19326.09;5053725;28;20223;-64
2023/01/12 07:54:13;;;;;;;4.80;2.23;;;8.60;99.90;;;-141.84;69.06;19332.19;5032794;28;20244;-63
2023/01/12 07:56:42;;;;;;;3.67;1.60;;;8.70;99.90;;;-141.84;68.86;19348.47;5032624;28;20241;-63
2023/01/12 07:59:11;;;;;;;5.43;1.53;;;8.70;99.90;;;-141.84;68.96;19313.91;5034056;28;20234;-63
2023/01/12 08:01:39;;;;;;;3.97;1.83;;;8.70;99.90;;;-141.84;69.15;19320.00;5052638;28;20819;-63
2023/01/12 08:04:08;;;;;;;4.37;1.97;;;8.70;99.90;;;-141.84;68.63;19352.53;5052852;28;20201;-63
2023/01/12 08:06:36;;;;;;;5.87;1.70;;;8.70;99.90;;;-141.84;68.50;19368.78;5053522;28;20209;-63
2023/01/12 08:09:05;;;;;;;4.63;1.83;;;8.70;99.90;;;-141.84;68.78;19315.94;5052496;28;20712;-64
2023/01/12 08:11:34;;;;;;;6.83;1.90;;;8.70;99.90;;;-141.84;68.54;19366.75;5052465;28;20742;-62
2023/01/12 08:14:04;;;;;;;5.17;1.70;;;8.80;99.90;;;-141.84;69.10;19364.72;5052518;28;20233;-63
2023/01/12 08:16:37;;;;;;;3.33;1.70;;;8.70;99.90;;;-141.84;68.93;19344.41;5052531;28;20225;-64
2023/01/12 08:19:15;;;;;;;5.77;1.70;;;8.80;99.90;;;-141.84;68.25;19360.66;5052887;28;20184;-64
2023/01/12 08:21:49;;;;;;;4.53;1.70;;;8.70;99.90;;;-141.84;68.89;19356.59;5053402;28;20220;-64
2023/01/12 08:24:29;;;;;;;4.03;1.57;;;8.70;99.90;;;-141.84;68.37;19356.59;5052533;28;20247;-65
2023/01/12 08:27:01;;;;;;;3.80;1.80;;;8.80;99.90;;;-141.84;68.30;19362.69;5052358;28;20229;-65
2023/01/12 08:29:39;;;;;;;5.27;1.80;;;8.80;99.90;;;-141.84;68.15;19350.50;5052069;28;20704;-66
2023/01/12 08:32:11;;;;;;;5.17;1.60;;;8.80;99.90;;;-141.84;67.94;19362.69;5052592;28;20220;-65
2023/01/12 08:34:43;;;;;;;4.87;2.03;;;8.80;99.90;;;-141.84;67.84;19374.88;5052533;28;20241;-67
2023/01/12 08:37:16;;;;;;;5.93;1.80;;;8.90;99.90;;;-141.84;68.06;19393.16;5052624;28;20284;-65
2023/01/12 08:39:48;;;;;;;5.40;1.80;;;9.00;99.90;;;-141.84;67.57;19370.81;5052640;28;20259;-65
2023/01/12 08:42:16;;;;;;;5.23;1.83;;;9.00;99.90;;;-141.84;67.41;19391.13;5052098;28;20225;-65
2023/01/12 08:44:45;;;;;;;5.63;1.70;;;9.00;99.90;;;-141.84;68.08;19370.81;5051970;28;20364;-65
2023/01/12 08:47:20;;;;;;;5.77;1.70;;;8.90;99.90;;;-141.84;68.20;19346.44;5052168;28;20286;-65
2023/01/12 08:49:48;;;;;;;5.03;1.80;;;8.90;99.90;;;-141.84;68.20;19374.88;5037542;28;20218;-65
2023/01/12 08:52:16;;;;;;;5.83;1.83;;;8.90;99.90;;;-141.84;68.07;19389.09;5032273;28;20202;-65
2023/01/12 08:54:47;;;;;;;4.83;1.60;;;8.90;99.90;;;-141.84;67.69;19389.09;5031529;28;20234;-65
2023/01/12 08:57:16;;;;;;;5.57;1.53;;;9.00;99.90;;;-141.84;67.80;19358.63;5031816;28;20230;-66
2023/01/12 08:59:44;;;;;;;3.57;1.37;;;9.00;99.90;;;-141.84;67.96;19387.06;5037982;28;20243;-65
2023/01/12 09:02:14;;;;;;;2.83;1.20;;;9.00;99.90;;;-141.84;67.58;19421.63;5051758;28;20227;-66
2023/01/12 09:04:43;;;;;;;6.17;1.70;;;9.10;99.90;;;-141.84;67.80;19348.47;5051641;28;20221;-64
2023/01/12 09:07:12;;;;;;;5.40;1.70;;;9.00;99.90;;;-141.84;67.65;19378.94;5051837;28;20206;-65
2023/01/12 09:09:41;;;;;;;4.87;1.63;;;9.10;99.90;;;-141.84;67.30;19399.25;5031794;28;20213;-65
2023/01/12 09:12:10;;;;;;;3.83;1.50;;;9.20;99.90;;;-141.84;67.12;19399.25;5031695;28;20962;-65
2023/01/12 09:14:38;;;;;;;3.97;1.50;;;9.20;99.90;;;-141.84;66.78;19417.56;5031434;28;20230;-64
2023/01/12 09:17:07;;;;;;;3.93;1.23;;;9.20;99.90;;;-141.84;66.42;19395.19;5031513;28;20701;-65
2023/01/12 09:19:35;;;;;;;5.93;2.03;;;9.30;99.90;;;-141.84;66.07;19435.84;5031446;28;20224;-65
2023/01/12 09:22:04;;;;;;;8.30;1.60;;;9.40;99.90;;;-141.84;66.30;19427.72;5031802;28;20225;-63
2023/01/12 09:24:32;;;;;;;2.43;1.30;;;9.40;99.90;;;-141.84;66.12;19427.72;5031777;28;20213;-65
2023/01/12 09:27:00;;;;;;;3.17;1.40;;;9.40;99.90;;;-141.84;65.85;19448.03;5045121;28;20287;-66
2023/01/12 09:29:29;;;;;;;3.83;1.60;;;9.40;99.90;;;-141.84;65.53;19431.78;5050477;28;20279;-65
2023/01/12 09:31:58;;;;;;;6.53;1.77;;;9.50;99.90;;;-141.84;65.38;19431.78;5051440;28;20228;-66
2023/01/12 09:34:26;;;;;;;3.37;1.30;;;9.60;99.90;;;-141.84;65.53;19448.03;5051011;28;20328;-65
2023/01/12 09:36:55;;;;;;;6.47;2.33;;;9.60;99.90;;;-141.84;65.74;19454.13;5051857;28;20622;-66
2023/01/12 09:39:23;;;;;;;5.20;1.60;;;9.70;99.90;;;-141.84;65.92;19415.50;5050876;28;20221;-66
2023/01/12 09:47:40;;;;;;;5.87;1.60;;;9.60;99.90;;;-141.84;66.48;19452.09;5031186;28;20229;-65
2023/01/12 09:50:15;;;;;;;4.57;1.60;;;9.50;99.90;;;-141.84;65.79;19446.00;5031014;28;20712;-66
2023/01/12 09:52:52;;;;;;;5.10;1.50;;;9.50;99.90;;;-141.84;65.74;19474.44;5031055;28;20237;-64
2023/01/12 09:55:23;;;;;;;4.90;1.73;;;9.50;99.90;;;-141.84;66.38;19439.91;5030644;28;20230;-65
2023/01/12 09:58:32;;;;;;;4.50;1.80;;;9.50;99.90;;;-141.84;66.15;19417.56;5031398;28;20190;-65
2023/01/12 10:01:09;;;;;;;3.70;1.83;;;9.50;99.90;;;-141.84;66.09;19460.22;5047407;28;20228;-66
2023/01/12 10:03:44;;;;;;;3.83;1.93;;;9.50;99.90;;;-141.84;65.93;19458.19;5051185;28;20190;-65
2023/01/12 10:06:16;;;;;;;3.27;1.70;;;9.50;99.90;;;-141.84;65.70;19448.03;5050866;28;20229;-64
2023/01/12 10:08:49;;;;;;;4.73;1.87;;;9.60;99.90;;;-141.84;66.19;19441.94;5050885;28;20225;-65
2023/01/12 10:11:28;;;;;;;5.77;2.10;;;9.50;99.90;;;-141.84;65.77;19470.38;5050883;28;20221;-65
2023/01/12 10:14:19;;;;;;;5.20;1.70;;;9.50;99.90;;;-141.84;66.20;19478.50;5050765;28;20221;-64
2023/01/12 10:17:09;;;;;;;3.30;1.40;;;9.50;99.90;;;-141.84;65.85;19490.72;5050893;28;20225;-65
2023/01/12 10:19:47;;;;;;;3.60;1.63;;;9.70;99.90;;;-141.84;65.74;19443.97;5050808;28;20225;-64
2023/01/12 10:22:37;;;;;;;5.30;1.13;;;9.60;99.90;;;-141.84;65.10;19478.50;5050757;28;20311;-64
2023/01/12 10:25:19;;;;;;;6.00;1.53;;;9.70;99.90;;;-141.84;65.37;19478.50;5050611;28;20192;-63
2023/01/12 10:27:53;;;;;;;2.53;1.30;;;9.70;99.90;;;-141.84;65.11;19464.28;5049901;28;20193;-65
2023/01/12 10:30:30;;;;;;;4.10;1.53;;;9.80;99.90;;;-141.84;65.32;19482.56;5050452;28;20705;-65
2023/01/12 10:33:10;;;;;;;5.63;1.40;;;9.80;99.90;;;-141.84;65.27;19488.69;5050519;28;20692;-65
2023/01/12 10:35:54;;;;;;;4.37;1.80;;;9.80;99.90;;;-141.84;64.76;19519.16;5050472;28;20743;-66
2023/01/12 10:38:27;;;;;;;2.63;1.20;;;9.80;99.90;;;-141.84;64.78;19517.13;5050787;28;20298;-65
2023/01/12 10:41:17;;;;;;;2.90;1.23;;;9.90;99.90;;;-141.84;64.88;19484.59;5049197;28;20213;-66
2023/01/12 10:44:14;;;;;;;5.77;1.53;;;9.90;99.90;;;-141.84;64.46;19496.81;5034406;28;20230;-65
2023/01/12 10:46:43;;;;;;;4.27;1.30;;;9.90;99.90;;;-141.84;64.43;19535.41;5034555;28;20222;-66
2023/01/12 10:49:21;;;;;;;4.83;1.60;;;9.90;99.90;;;-141.84;64.62;19496.81;5034841;28;20209;-66
2023/01/12 10:51:54;;;;;;;3.40;1.00;;;9.80;99.90;;;-141.84;64.28;19511.03;5035129;28;20183;-66
2023/01/12 10:54:27;;;;;;;3.83;1.40;;;9.90;99.90;;;-141.84;64.76;19504.94;5034313;28;20728;-65
2023/01/12 10:57:00;;;;;;;4.77;1.00;;;9.80;99.90;;;-141.84;65.11;19504.94;5034298;28;20225;-66
2023/01/12 10:59:32;;;;;;;1.43;0.80;;;9.80;99.90;;;-141.84;64.12;19553.72;5037975;28;20214;-67
2023/01/12 11:02:18;;;;;;;2.30;1.10;;;9.80;99.90;;;-141.84;64.25;19502.91;5054143;28;20225;-65
2023/01/12 11:04:51;;;;;;;3.60;1.07;;;9.80;99.90;;;-141.84;64.22;19515.09;5053582;28;20229;-66
2023/01/12 11:07:24;;;;;;;1.67;0.80;;;9.80;99.90;;;-141.84;64.23;19500.88;5053692;28;20276;-64
2023/01/12 11:09:54;;;;;;;2.70;0.70;;;9.80;99.90;;;-141.84;63.68;19480.53;5053820;28;20530;-66
2023/01/12 11:12:29;;;;;;;1.83;0.87;;;9.80;99.90;;;-141.84;63.83;19533.38;5053299;28;20237;-65
2023/01/12 11:15:01;;;;;;;1.87;1.00;;;9.80;99.90;;;-141.84;63.97;19509.00;5053868;28;20239;-65
2023/01/12 11:17:56;;;;;;;1.73;0.80;;;9.80;99.90;;;-141.84;63.96;19496.81;5053546;28;20255;-66